createdAt,value
2019-05-05T00:00:45.036Z,96.75
2019-05-05T00:01:45.181Z,97.06
2019-05-05T00:02:45.017Z,97.06
2019-05-05T00:03:45.016Z,97.27
2019-05-05T00:04:45.589Z,97.16
2019-05-05T00:05:44.977Z,96.75
2019-05-05T00:06:44.975Z,96.33
2019-05-05T00:07:44.965Z,95.70
2019-05-05T00:08:45.723Z,95.81
2019-05-05T00:09:45.037Z,95.70
2019-05-05T00:10:45.285Z,95.91
2019-05-05T00:11:44.916Z,96.01
2019-05-05T00:12:44.978Z,96.33
2019-05-05T00:13:44.923Z,96.95
2019-05-05T00:14:44.886Z,97.27
2019-05-05T00:15:45.067Z,97.58
2019-05-05T00:16:44.871Z,97.47
2019-05-05T00:17:45.067Z,97.68
2019-05-05T00:18:44.888Z,97.89
2019-05-05T00:19:45.430Z,97.99
2019-05-05T00:20:44.823Z,98.10
2019-05-05T00:21:44.821Z,98.20
2019-05-05T00:22:45.520Z,98.10
2019-05-05T00:23:45.185Z,97.89
2019-05-05T00:24:44.792Z,97.58
2019-05-05T00:25:44.837Z,97.58
2019-05-05T00:26:46.048Z,97.27
2019-05-05T00:27:45.231Z,97.27
2019-05-05T00:28:44.920Z,97.16
2019-05-05T00:29:45.385Z,97.47
2019-05-05T00:30:44.947Z,97.58
2019-05-05T00:31:45.429Z,97.27
2019-05-05T00:32:44.697Z,96.91
2019-05-05T00:33:44.974Z,96.80
2019-05-05T00:34:44.702Z,97.33
2019-05-05T00:35:45.182Z,97.64
2019-05-05T00:36:44.753Z,97.53
2019-05-05T00:37:45.125Z,97.47
2019-05-05T00:38:44.670Z,97.74
2019-05-05T00:39:45.210Z,97.95
2019-05-05T00:40:44.608Z,98.05
2019-05-05T00:41:44.986Z,98.05
2019-05-05T00:42:45.591Z,98.26
2019-05-05T00:43:45.144Z,98.26
2019-05-05T00:44:44.834Z,98.36
2019-05-05T00:45:45.083Z,98.36
2019-05-05T00:46:44.730Z,97.53
2019-05-05T00:47:45.087Z,97.01
2019-05-05T00:48:44.585Z,97.33
2019-05-05T00:49:49.067Z,97.53
2019-05-05T00:50:45.030Z,97.53
2019-05-05T00:51:44.500Z,97.22
2019-05-05T00:52:44.643Z,96.91
2019-05-05T00:53:44.991Z,96.70
2019-05-05T00:54:45.037Z,96.59
2019-05-05T00:55:44.455Z,96.34
2019-05-05T00:56:45.044Z,96.14
2019-05-05T00:57:45.369Z,96.24
2019-05-05T00:58:44.688Z,96.66
2019-05-05T00:59:45.264Z,96.86
2019-05-05T01:00:44.479Z,96.76
2019-05-05T01:01:44.887Z,97.28
2019-05-05T01:02:44.924Z,97.28
2019-05-05T01:03:44.375Z,96.86
2019-05-05T01:04:44.570Z,96.34
2019-05-05T01:05:44.808Z,96.66
2019-05-05T01:06:45.056Z,96.49
2019-05-05T01:07:44.486Z,96.59
2019-05-05T01:08:44.588Z,96.80
2019-05-05T01:09:45.084Z,96.59
2019-05-05T01:10:44.359Z,96.59
2019-05-05T01:11:44.663Z,96.28
2019-05-05T01:12:45.007Z,96.34
2019-05-05T01:13:45.514Z,96.76
2019-05-05T01:14:44.840Z,96.76
2019-05-05T01:15:44.880Z,96.59
2019-05-05T01:16:45.636Z,96.49
2019-05-05T01:17:45.077Z,95.87
2019-05-05T01:18:45.051Z,95.76
2019-05-05T01:19:46.720Z,96.08
2019-05-05T01:20:45.201Z,95.87
2019-05-05T01:21:45.390Z,96.08
2019-05-05T01:22:44.795Z,96.08
2019-05-05T01:23:45.529Z,96.59
2019-05-05T01:24:45.870Z,96.49
2019-05-05T01:25:45.519Z,96.59
2019-05-05T01:26:44.613Z,95.87
2019-05-05T01:27:45.297Z,95.97
2019-05-05T01:28:44.706Z,95.97
2019-05-05T01:29:45.241Z,95.76
2019-05-05T01:30:44.543Z,95.76
2019-05-05T01:31:45.222Z,96.80
2019-05-05T01:32:44.617Z,96.49
2019-05-05T01:33:44.896Z,96.14
2019-05-05T01:34:44.421Z,96.28
2019-05-05T01:35:44.765Z,96.49
2019-05-05T01:36:45.166Z,96.80
2019-05-05T01:37:44.341Z,96.80
2019-05-05T01:38:44.687Z,96.59
2019-05-05T01:39:45.245Z,96.80
2019-05-05T01:40:44.702Z,97.22
2019-05-05T01:41:45.272Z,97.53
2019-05-05T01:42:44.672Z,97.64
2019-05-05T01:43:45.225Z,97.85
2019-05-05T01:44:44.806Z,97.95
2019-05-05T01:45:45.314Z,98.05
2019-05-05T01:46:44.490Z,98.16
2019-05-05T01:47:45.299Z,98.05
2019-05-05T01:48:44.599Z,97.95
2019-05-05T01:49:45.242Z,97.74
2019-05-05T01:50:45.275Z,97.53
2019-05-05T01:51:44.731Z,97.22
2019-05-05T01:52:45.098Z,97.22
2019-05-05T01:53:44.370Z,97.33
2019-05-05T01:54:44.663Z,97.17
2019-05-05T01:55:45.170Z,97.17
2019-05-05T01:56:44.574Z,97.07
2019-05-05T01:57:45.025Z,97.07
2019-05-05T01:58:44.253Z,97.28
2019-05-05T01:59:44.754Z,97.28
2019-05-05T02:00:45.213Z,97.07
2019-05-05T02:01:44.583Z,96.45
2019-05-05T02:02:44.895Z,96.34
2019-05-05T02:03:44.275Z,95.93
2019-05-05T02:04:44.728Z,95.72
2019-05-05T02:05:45.284Z,95.83
2019-05-05T02:06:44.347Z,96.14
2019-05-05T02:07:44.902Z,96.24
2019-05-05T02:08:45.432Z,96.66
2019-05-05T02:09:44.888Z,96.66
2019-05-05T02:10:45.361Z,96.45
2019-05-05T02:11:45.327Z,96.03
2019-05-05T02:12:44.710Z,95.62
2019-05-05T02:13:45.058Z,95.83
2019-05-05T02:14:44.438Z,96.14
2019-05-05T02:15:44.559Z,96.14
2019-05-05T02:16:45.151Z,96.34
2019-05-05T02:17:44.603Z,96.76
2019-05-05T02:18:45.027Z,96.76
2019-05-05T02:19:44.339Z,96.86
2019-05-05T02:20:45.078Z,96.45
2019-05-05T02:21:45.343Z,96.14
2019-05-05T02:22:44.562Z,96.14
2019-05-05T02:23:45.328Z,96.34
2019-05-05T02:24:44.423Z,96.34
2019-05-05T02:25:44.770Z,96.55
2019-05-05T02:26:45.442Z,96.76
2019-05-05T02:27:44.679Z,97.07
2019-05-05T02:28:45.320Z,96.14
2019-05-05T02:29:44.648Z,96.14
2019-05-05T02:30:46.414Z,96.34
2019-05-05T02:31:45.383Z,96.45
2019-05-05T02:32:45.155Z,96.55
2019-05-05T02:33:46.011Z,96.45
2019-05-05T02:34:45.665Z,96.45
2019-05-05T02:35:45.872Z,96.66
2019-05-05T02:36:46.006Z,96.76
2019-05-05T02:37:45.673Z,96.86
2019-05-05T02:38:46.126Z,96.97
2019-05-05T02:39:52.635Z,96.76
2019-05-05T02:40:45.179Z,96.55
2019-05-05T02:41:45.266Z,96.41
2019-05-05T02:42:45.601Z,96.61
2019-05-05T02:43:44.996Z,96.51
2019-05-05T02:44:45.559Z,96.30
2019-05-05T02:45:44.216Z,95.78
2019-05-05T02:46:44.654Z,95.57
2019-05-05T02:47:45.120Z,95.30
2019-05-05T02:48:45.010Z,95.30
2019-05-05T02:49:45.418Z,95.62
2019-05-05T02:50:52.468Z,95.83
2019-05-05T02:51:44.829Z,96.03
2019-05-05T02:52:44.237Z,95.93
2019-05-05T02:53:44.525Z,95.83
2019-05-05T02:54:44.219Z,96.03
2019-05-05T02:55:44.241Z,96.45
2019-05-05T02:56:43.686Z,96.55
2019-05-05T02:57:43.913Z,96.39
2019-05-05T02:58:44.392Z,96.39
2019-05-05T02:59:43.558Z,96.24
2019-05-05T03:00:43.734Z,96.28
2019-05-05T03:01:44.604Z,96.49
2019-05-05T03:02:43.530Z,96.49
2019-05-05T03:03:43.829Z,96.59
2019-05-05T03:04:44.325Z,96.70
2019-05-05T03:05:43.531Z,97.01
2019-05-05T03:06:43.738Z,97.17
2019-05-05T03:07:43.729Z,96.80
2019-05-05T03:08:43.948Z,97.01
2019-05-05T03:09:43.977Z,97.28
2019-05-05T03:10:44.307Z,97.07
2019-05-05T03:11:43.651Z,96.86
2019-05-05T03:12:43.907Z,96.97
2019-05-05T03:13:44.219Z,96.66
2019-05-05T03:14:44.594Z,96.66
2019-05-05T03:15:44.145Z,96.55
2019-05-05T03:16:43.538Z,96.14
2019-05-05T03:17:44.476Z,96.45
2019-05-05T03:18:43.969Z,95.72
2019-05-05T03:19:44.405Z,95.83
2019-05-05T03:20:43.608Z,96.03
2019-05-05T03:21:44.183Z,96.03
2019-05-05T03:22:43.482Z,95.93
2019-05-05T03:23:44.016Z,95.93
2019-05-05T03:24:44.674Z,96.14
2019-05-05T03:25:44.043Z,96.55
2019-05-05T03:26:44.341Z,96.86
2019-05-05T03:27:44.523Z,96.55
2019-05-05T03:28:43.851Z,96.45
2019-05-05T03:29:44.180Z,97.28
2019-05-05T03:30:45.320Z,98.01
2019-05-05T03:31:45.795Z,98.01
2019-05-05T03:32:45.665Z,97.80
2019-05-05T03:33:45.779Z,97.28
2019-05-05T03:34:44.529Z,95.93
2019-05-05T03:35:43.628Z,96.14
2019-05-05T03:36:44.194Z,96.86
2019-05-05T03:37:44.507Z,96.97
2019-05-05T03:38:44.444Z,96.86
2019-05-05T03:39:44.449Z,96.66
2019-05-05T03:40:43.653Z,96.34
2019-05-05T03:41:43.797Z,96.45
2019-05-05T03:42:44.285Z,96.55
2019-05-05T03:43:43.423Z,96.34
2019-05-05T03:44:44.051Z,96.55
2019-05-05T03:45:44.435Z,96.45
2019-05-05T03:46:43.845Z,96.66
2019-05-05T03:47:44.079Z,96.76
2019-05-05T03:48:43.810Z,96.76
2019-05-05T03:49:44.177Z,96.24
2019-05-05T03:50:44.562Z,95.83
2019-05-05T03:51:43.885Z,96.66
2019-05-05T03:52:43.824Z,96.86
2019-05-05T03:53:44.133Z,96.86
2019-05-05T03:54:43.560Z,96.34
2019-05-05T03:55:43.906Z,96.24
2019-05-05T03:56:44.165Z,95.93
2019-05-05T03:57:44.521Z,96.03
2019-05-05T03:58:43.713Z,96.03
2019-05-05T03:59:44.271Z,96.34
2019-05-05T04:00:43.309Z,96.24
2019-05-05T04:01:43.970Z,96.14
2019-05-05T04:02:44.397Z,96.14
2019-05-05T04:03:43.533Z,95.83
2019-05-05T04:04:44.123Z,96.14
2019-05-05T04:05:44.379Z,96.45
2019-05-05T04:06:44.489Z,96.34
2019-05-05T04:07:44.010Z,95.93
2019-05-05T04:08:44.299Z,96.66
2019-05-05T04:09:43.761Z,96.45
2019-05-05T04:10:43.928Z,95.62
2019-05-05T04:11:44.321Z,95.30
2019-05-05T04:12:43.530Z,95.62
2019-05-05T04:13:43.773Z,95.93
2019-05-05T04:14:44.019Z,94.93
2019-05-05T04:15:44.091Z,94.82
2019-05-05T04:16:43.580Z,95.03
2019-05-05T04:17:44.117Z,95.03
2019-05-05T04:18:43.573Z,95.35
2019-05-05T04:19:43.603Z,95.45
2019-05-05T04:20:44.046Z,95.97
2019-05-05T04:21:44.338Z,95.97
2019-05-05T04:22:43.432Z,95.87
2019-05-05T04:23:44.051Z,95.91
2019-05-05T04:24:43.575Z,96.01
2019-05-05T04:25:43.914Z,96.33
2019-05-05T04:26:43.574Z,96.75
2019-05-05T04:27:42.174Z,96.85
2019-05-05T04:28:43.656Z,96.95
2019-05-05T04:29:44.005Z,97.12
2019-05-05T04:30:44.277Z,97.43
2019-05-05T04:31:43.539Z,97.43
2019-05-05T04:32:43.927Z,97.53
2019-05-05T04:33:44.328Z,97.53
2019-05-05T04:34:43.844Z,97.01
2019-05-05T04:35:43.877Z,96.80
2019-05-05T04:36:42.062Z,96.49
2019-05-05T04:37:43.738Z,96.39
2019-05-05T04:38:43.882Z,96.59
2019-05-05T04:39:44.162Z,96.70
2019-05-05T04:40:43.524Z,96.91
2019-05-05T04:41:43.926Z,97.01
2019-05-05T04:42:43.885Z,96.70
2019-05-05T04:43:44.057Z,96.49
2019-05-05T04:44:41.980Z,96.39
2019-05-05T04:45:43.604Z,96.49
2019-05-05T04:46:41.959Z,96.80
2019-05-05T04:47:43.595Z,97.01
2019-05-05T04:48:43.454Z,96.91
2019-05-05T04:49:41.919Z,96.80
2019-05-05T04:50:43.935Z,96.86
2019-05-05T04:51:47.637Z,96.66
2019-05-05T04:52:43.441Z,96.55
2019-05-05T04:53:43.740Z,96.55
2019-05-05T04:54:43.840Z,96.24
2019-05-05T04:55:41.858Z,96.24
2019-05-05T04:56:41.850Z,96.24
2019-05-05T04:57:43.697Z,95.93
2019-05-05T04:58:43.921Z,95.57
2019-05-05T04:59:41.818Z,95.36
2019-05-05T05:00:43.601Z,95.57
2019-05-05T05:01:43.919Z,96.09
2019-05-05T05:02:43.660Z,96.30
2019-05-05T05:03:43.769Z,95.99
2019-05-05T05:04:41.757Z,95.78
2019-05-05T05:05:41.746Z,95.57
2019-05-05T05:06:43.516Z,95.57
2019-05-05T05:07:43.812Z,95.26
2019-05-05T05:08:41.716Z,94.74
2019-05-05T05:09:43.458Z,94.84
2019-05-05T05:10:43.695Z,95.36
2019-05-05T05:11:41.686Z,95.57
2019-05-05T05:12:43.451Z,95.67
2019-05-05T05:13:43.880Z,94.80
2019-05-05T05:14:41.654Z,95.42
2019-05-05T05:15:41.646Z,94.90
2019-05-05T05:16:43.578Z,94.70
2019-05-05T05:17:41.623Z,95.11
2019-05-05T05:18:41.626Z,94.28
2019-05-05T05:19:43.553Z,93.14
2019-05-05T05:20:41.593Z,93.35
2019-05-05T05:21:43.485Z,93.55
2019-05-05T05:22:41.573Z,93.45
2019-05-05T05:23:41.573Z,93.87
2019-05-05T05:24:41.562Z,94.18
2019-05-05T05:25:43.697Z,93.62
2019-05-05T05:26:41.534Z,93.55
2019-05-05T05:27:41.523Z,94.49
2019-05-05T05:28:41.522Z,94.55
2019-05-05T05:29:43.690Z,94.65
2019-05-05T05:30:41.491Z,94.76
2019-05-05T05:31:41.483Z,94.55
2019-05-05T05:32:41.471Z,94.55
2019-05-05T05:33:43.518Z,94.65
2019-05-05T05:34:43.554Z,94.20
2019-05-05T05:35:41.440Z,94.51
2019-05-05T05:36:41.430Z,94.92
2019-05-05T05:37:41.422Z,95.13
2019-05-05T05:38:41.422Z,94.92
2019-05-05T05:39:41.400Z,94.51
2019-05-05T05:40:41.389Z,94.26
2019-05-05T05:41:43.450Z,94.36
2019-05-05T05:42:41.369Z,92.90
2019-05-05T05:43:41.369Z,91.97
2019-05-05T05:44:41.348Z,92.53
2019-05-05T05:45:41.338Z,93.37
2019-05-05T05:46:41.328Z,92.01
2019-05-05T05:47:41.320Z,93.05
2019-05-05T05:48:43.356Z,93.68
2019-05-05T05:49:41.298Z,94.09
2019-05-05T05:50:41.287Z,94.30
2019-05-05T05:51:41.278Z,92.43
2019-05-05T05:52:41.267Z,92.32
2019-05-05T05:53:41.277Z,93.26
2019-05-05T05:54:41.247Z,92.16
2019-05-05T05:55:41.236Z,92.47
2019-05-05T05:56:41.226Z,92.16
2019-05-05T05:57:41.216Z,92.99
2019-05-05T05:58:41.207Z,94.34
2019-05-05T05:59:41.216Z,94.34
2019-05-05T06:00:42.269Z,94.03
2019-05-05T06:01:41.178Z,93.51
2019-05-05T06:02:41.165Z,93.41
2019-05-05T06:03:41.156Z,93.93
2019-05-05T06:04:41.155Z,93.93
2019-05-05T06:05:41.134Z,94.45
2019-05-05T06:06:41.132Z,94.45
2019-05-05T06:07:41.117Z,92.99
2019-05-05T06:08:41.114Z,93.62
2019-05-05T06:09:41.112Z,94.65
2019-05-05T06:10:41.084Z,92.57
2019-05-05T06:11:41.085Z,92.36
2019-05-05T06:12:41.063Z,92.99
2019-05-05T06:13:41.054Z,92.88
2019-05-05T06:14:41.054Z,92.36
2019-05-05T06:15:41.033Z,92.43
2019-05-05T06:16:41.023Z,92.94
2019-05-05T06:17:41.013Z,93.16
2019-05-05T06:18:41.011Z,93.16
2019-05-05T06:19:41.012Z,91.49
2019-05-05T06:20:40.995Z,91.24
2019-05-05T06:21:40.981Z,91.45
2019-05-05T06:22:40.972Z,92.59
2019-05-05T06:23:40.962Z,93.12
2019-05-05T06:24:40.962Z,91.66
2019-05-05T06:25:40.941Z,89.48
2019-05-05T06:26:40.921Z,88.38
2019-05-05T06:27:40.920Z,88.17
2019-05-05T06:28:40.910Z,90.14
2019-05-05T06:29:40.911Z,88.79
2019-05-05T06:30:40.888Z,89.06
2019-05-05T06:31:40.879Z,90.20
2019-05-05T06:32:43.657Z,90.93
2019-05-05T06:33:40.861Z,91.03
2019-05-05T06:34:40.859Z,90.72
2019-05-05T06:35:40.839Z,91.14
2019-05-05T06:36:40.831Z,91.72
2019-05-05T06:37:40.818Z,89.96
2019-05-05T06:38:40.807Z,90.27
2019-05-05T06:39:40.808Z,89.03
2019-05-05T06:40:40.787Z,89.96
2019-05-05T06:41:40.778Z,90.89
2019-05-05T06:42:40.767Z,89.86
2019-05-05T06:43:40.758Z,89.17
2019-05-05T06:44:40.757Z,89.89
2019-05-05T06:45:40.737Z,90.52
2019-05-05T06:46:40.727Z,89.69
2019-05-05T06:47:40.727Z,90.10
2019-05-05T06:48:40.716Z,90.72
2019-05-05T06:49:40.707Z,91.14
2019-05-05T06:50:40.695Z,91.76
2019-05-05T06:51:40.676Z,92.07
2019-05-05T06:52:44.311Z,91.45
2019-05-05T06:53:43.415Z,90.41
2019-05-05T06:54:40.675Z,89.58
2019-05-05T06:55:40.635Z,90.27
2019-05-05T06:56:40.623Z,90.06
2019-05-05T06:57:40.614Z,89.34
2019-05-05T06:58:40.604Z,89.54
2019-05-05T06:59:40.594Z,88.51
2019-05-05T07:00:41.033Z,87.78
2019-05-05T07:01:40.575Z,88.20
2019-05-05T07:02:40.564Z,88.82
2019-05-05T07:03:40.553Z,88.71
2019-05-05T07:04:40.543Z,89.44
2019-05-05T07:05:40.549Z,88.61
2019-05-05T07:06:51.676Z,88.40
2019-05-05T07:07:43.443Z,88.82
2019-05-05T07:08:40.503Z,89.03
2019-05-05T07:09:40.492Z,88.51
2019-05-05T07:10:40.492Z,88.61
2019-05-05T07:11:40.472Z,87.26
2019-05-05T07:12:40.462Z,87.57
2019-05-05T07:13:40.452Z,88.82
2019-05-05T07:14:40.451Z,87.26
2019-05-05T07:15:40.442Z,87.09
2019-05-05T07:16:40.421Z,87.71
2019-05-05T07:17:40.411Z,86.36
2019-05-05T07:18:40.401Z,88.02
2019-05-05T07:19:40.393Z,88.23
2019-05-05T07:20:40.391Z,85.33
2019-05-05T07:21:40.371Z,85.95
2019-05-05T07:22:40.359Z,87.30
2019-05-05T07:23:40.351Z,89.58
2019-05-05T07:24:40.339Z,90.20
2019-05-05T07:25:43.233Z,90.62
2019-05-05T07:26:41.320Z,89.58
2019-05-05T07:27:40.309Z,89.27
2019-05-05T07:28:40.299Z,89.58
2019-05-05T07:29:40.289Z,88.96
2019-05-05T07:30:40.289Z,90.52
2019-05-05T07:31:40.298Z,89.06
2019-05-05T07:32:40.284Z,88.13
2019-05-05T07:33:40.249Z,89.69
2019-05-05T07:34:40.242Z,89.37
2019-05-05T07:35:53.325Z,88.85
2019-05-05T07:36:41.227Z,88.13
2019-05-05T07:37:40.208Z,88.75
2019-05-05T07:38:40.207Z,89.48
2019-05-05T07:39:40.188Z,89.17
2019-05-05T07:40:40.195Z,89.58
2019-05-05T07:41:40.662Z,88.23
2019-05-05T07:42:40.157Z,89.89
2019-05-05T07:43:40.146Z,91.35
2019-05-05T07:44:40.136Z,90.83
2019-05-05T07:45:40.136Z,90.72
2019-05-05T07:46:40.568Z,90.62
2019-05-05T07:47:40.511Z,90.52
2019-05-05T07:48:40.096Z,91.35
2019-05-05T07:49:40.085Z,91.76
2019-05-05T07:50:40.097Z,91.86
2019-05-05T07:51:40.099Z,92.24
2019-05-05T07:52:40.054Z,92.14
2019-05-05T07:53:40.044Z,92.03
2019-05-05T07:54:40.035Z,92.10
2019-05-05T07:55:40.024Z,91.89
2019-05-05T07:56:40.025Z,90.23
2019-05-05T07:57:40.034Z,90.08
2019-05-05T07:58:40.003Z,90.81
2019-05-05T07:59:39.984Z,89.11
2019-05-05T08:00:39.972Z,87.87
2019-05-05T08:01:43.302Z,86.21
2019-05-05T08:02:40.953Z,86.07
2019-05-05T08:03:39.942Z,85.44
2019-05-05T08:04:39.931Z,85.03
2019-05-05T08:05:39.921Z,84.82
2019-05-05T08:06:39.923Z,84.92
2019-05-05T08:07:39.902Z,86.17
2019-05-05T08:08:39.891Z,87.41
2019-05-05T08:09:39.881Z,87.51
2019-05-05T08:10:39.871Z,87.62
2019-05-05T08:11:39.882Z,86.27
2019-05-05T08:12:39.861Z,85.92
2019-05-05T08:13:39.841Z,83.85
2019-05-05T08:14:39.831Z,81.37
2019-05-05T08:15:53.855Z,83.71
2019-05-05T08:16:40.828Z,82.67
2019-05-05T08:17:39.801Z,82.46
2019-05-05T08:18:39.790Z,81.70
2019-05-05T08:19:39.791Z,82.12
2019-05-05T08:20:39.778Z,81.60
2019-05-05T08:21:39.787Z,81.39
2019-05-05T08:22:39.760Z,82.08
2019-05-05T08:23:39.750Z,80.32
2019-05-05T08:24:39.739Z,82.18
2019-05-05T08:25:40.315Z,80.11
2019-05-05T08:26:39.766Z,81.25
2019-05-05T08:27:39.709Z,80.01
2019-05-05T08:28:39.698Z,79.49
2019-05-05T08:29:39.688Z,77.53
2019-05-05T08:30:39.678Z,79.29
2019-05-05T08:31:39.687Z,79.19
2019-05-05T08:32:39.668Z,79.29
2019-05-05T08:33:39.647Z,79.33
2019-05-05T08:34:54.391Z,79.12
2019-05-05T08:35:40.636Z,80.36
2019-05-05T08:36:39.638Z,79.02
2019-05-05T08:37:39.607Z,78.02
2019-05-05T08:38:39.602Z,77.50
2019-05-05T08:39:39.599Z,77.39
2019-05-05T08:40:39.586Z,77.98
2019-05-05T08:41:39.591Z,80.15
2019-05-05T08:42:39.567Z,79.74
2019-05-05T08:43:39.556Z,77.26
2019-05-05T08:44:39.546Z,73.46
2019-05-05T08:45:39.533Z,77.19
2019-05-05T08:46:39.535Z,78.12
2019-05-05T08:47:39.513Z,79.16
2019-05-05T08:48:39.504Z,78.02
2019-05-05T08:49:39.501Z,78.33
2019-05-05T08:50:39.492Z,79.67
2019-05-05T08:51:39.485Z,79.16
2019-05-05T08:52:39.464Z,80.19
2019-05-05T08:53:45.055Z,80.19
2019-05-05T08:54:40.443Z,80.50
2019-05-05T08:55:39.424Z,79.43
2019-05-05T08:56:39.434Z,78.81
2019-05-05T08:57:39.413Z,78.91
2019-05-05T08:58:39.403Z,79.12
2019-05-05T08:59:39.393Z,79.36
2019-05-05T09:00:39.383Z,80.19
2019-05-05T09:01:39.392Z,79.77
2019-05-05T09:02:39.363Z,80.40
2019-05-05T09:03:39.355Z,78.12
2019-05-05T09:04:39.352Z,75.84
2019-05-05T09:05:39.332Z,79.05
2019-05-05T09:06:39.342Z,79.77
2019-05-05T09:07:39.321Z,77.50
2019-05-05T09:08:39.302Z,77.81
2019-05-05T09:09:39.291Z,78.22
2019-05-05T09:10:39.296Z,76.05
2019-05-05T09:11:39.292Z,75.74
2019-05-05T09:12:39.271Z,75.63
2019-05-05T09:13:39.261Z,76.88
2019-05-05T09:14:39.250Z,76.43
2019-05-05T09:15:39.241Z,76.43
2019-05-05T09:16:39.230Z,75.91
2019-05-05T09:17:39.261Z,76.91
2019-05-05T09:18:39.231Z,75.26
2019-05-05T09:19:39.200Z,75.22
2019-05-05T09:20:39.190Z,75.63
2019-05-05T09:21:39.179Z,73.64
2019-05-05T09:22:39.187Z,71.26
2019-05-05T09:23:39.159Z,71.78
2019-05-05T09:24:39.150Z,74.15
2019-05-05T09:25:39.139Z,73.74
2019-05-05T09:26:39.133Z,70.95
2019-05-05T09:27:39.139Z,71.71
2019-05-05T09:28:39.108Z,74.81
2019-05-05T09:29:39.099Z,72.95
2019-05-05T09:30:39.097Z,74.71
2019-05-05T09:31:39.078Z,73.19
2019-05-05T09:32:39.088Z,74.88
2019-05-05T09:33:39.058Z,74.05
2019-05-05T09:34:39.059Z,75.05
2019-05-05T09:35:39.046Z,73.81
2019-05-05T09:36:39.096Z,72.67
2019-05-05T09:37:39.037Z,74.43
2019-05-05T09:38:39.017Z,73.71
2019-05-05T09:39:39.007Z,74.63
2019-05-05T09:40:38.996Z,74.12
2019-05-05T09:41:38.987Z,72.98
2019-05-05T09:42:38.987Z,74.12
2019-05-05T09:43:38.966Z,73.60
2019-05-05T09:44:38.956Z,71.95
2019-05-05T09:45:38.945Z,70.40
2019-05-05T09:46:39.707Z,72.85
2019-05-05T09:47:38.945Z,74.15
2019-05-05T09:48:38.914Z,74.26
2019-05-05T09:49:38.905Z,73.22
2019-05-05T09:50:38.894Z,72.67
2019-05-05T09:51:38.914Z,70.85
2019-05-05T09:52:38.892Z,71.06
2019-05-05T09:53:38.873Z,70.12
2019-05-05T09:54:38.854Z,71.02
2019-05-05T09:55:38.843Z,72.47
2019-05-05T09:56:38.842Z,74.43
2019-05-05T09:57:38.843Z,70.20
2019-05-05T09:58:38.823Z,71.75
2019-05-05T09:59:40.288Z,71.44
2019-05-05T10:00:38.795Z,71.95
2019-05-05T10:01:38.783Z,72.95
2019-05-05T10:02:38.783Z,72.02
2019-05-05T10:03:38.762Z,71.06
2019-05-05T10:04:38.754Z,68.24
2019-05-05T10:05:38.742Z,69.69
2019-05-05T10:06:38.732Z,65.53
2019-05-05T10:07:38.743Z,66.67
2019-05-05T10:08:38.720Z,65.64
2019-05-05T10:09:38.702Z,65.81
2019-05-05T10:10:38.702Z,66.22
2019-05-05T10:11:38.695Z,65.09
2019-05-05T10:12:38.691Z,65.19
2019-05-05T10:13:38.661Z,64.99
2019-05-05T10:14:38.653Z,67.46
2019-05-05T10:15:38.641Z,66.67
2019-05-05T10:16:38.631Z,65.95
2019-05-05T10:17:38.643Z,68.35
2019-05-05T10:18:38.611Z,69.07
2019-05-05T10:19:38.590Z,67.45
2019-05-05T10:20:38.580Z,67.14
2019-05-05T10:21:38.572Z,68.62
2019-05-05T10:22:38.569Z,71.20
2019-05-05T10:23:38.560Z,68.75
2019-05-05T10:24:38.540Z,68.24
2019-05-05T10:25:38.531Z,70.43
2019-05-05T10:26:38.519Z,70.64
2019-05-05T10:27:44.875Z,71.88
2019-05-05T10:28:39.510Z,69.33
2019-05-05T10:29:38.497Z,68.30
2019-05-05T10:30:38.487Z,68.61
2019-05-05T10:31:38.470Z,70.92
2019-05-05T10:32:38.459Z,72.98
2019-05-05T10:33:38.467Z,71.43
2019-05-05T10:34:38.438Z,72.95
2019-05-05T10:35:38.437Z,72.02
2019-05-05T10:36:38.578Z,71.92
2019-05-05T10:37:38.409Z,71.47
2019-05-05T10:38:38.419Z,69.82
2019-05-05T10:39:38.398Z,70.12
2019-05-05T10:40:38.388Z,70.85
2019-05-05T10:41:38.376Z,69.51
2019-05-05T10:42:38.366Z,70.40
2019-05-05T10:43:38.379Z,70.20
2019-05-05T10:44:38.347Z,69.58
2019-05-05T10:45:38.355Z,72.16
2019-05-05T10:46:38.318Z,70.78
2019-05-05T10:47:38.317Z,69.24
2019-05-05T10:48:38.317Z,67.38
2019-05-05T10:49:38.292Z,67.90
2019-05-05T10:50:38.286Z,69.96
2019-05-05T10:51:38.276Z,67.76
2019-05-05T10:52:38.256Z,66.11
2019-05-05T10:53:38.265Z,67.03
2019-05-05T10:54:44.024Z,66.11
2019-05-05T10:55:39.225Z,66.52
2019-05-05T10:56:38.217Z,67.86
2019-05-05T10:57:38.206Z,68.04
2019-05-05T10:58:38.205Z,66.08
2019-05-05T10:59:38.185Z,69.27
2019-05-05T11:00:38.175Z,66.77
2019-05-05T11:01:38.174Z,65.64
2019-05-05T11:02:38.154Z,64.50
2019-05-05T11:03:38.164Z,65.09
2019-05-05T11:04:38.134Z,64.47
2019-05-05T11:05:38.124Z,65.92
2019-05-05T11:06:38.120Z,64.50
2019-05-05T11:07:38.106Z,66.97
2019-05-05T11:08:38.103Z,65.02
2019-05-05T11:09:38.082Z,65.67
2019-05-05T11:10:38.072Z,65.15
2019-05-05T11:11:38.053Z,65.67
2019-05-05T11:12:38.044Z,64.36
2019-05-05T11:13:38.043Z,64.36
2019-05-05T11:14:38.031Z,62.99
2019-05-05T11:15:38.018Z,64.74
2019-05-05T11:16:38.006Z,64.22
2019-05-05T11:17:37.992Z,64.71
2019-05-05T11:18:37.993Z,64.99
2019-05-05T11:19:37.972Z,65.26
2019-05-05T11:20:37.965Z,64.65
2019-05-05T11:21:37.951Z,63.49
2019-05-05T11:22:37.943Z,59.96
2019-05-05T11:23:37.940Z,58.98
2019-05-05T11:24:37.911Z,60.60
2019-05-05T11:25:37.901Z,60.26
2019-05-05T11:26:37.891Z,59.23
2019-05-05T11:27:37.882Z,56.87
2019-05-05T11:28:37.888Z,59.13
2019-05-05T11:29:37.850Z,56.56
2019-05-05T11:30:37.840Z,58.21
2019-05-05T11:31:37.821Z,57.31
2019-05-05T11:32:37.811Z,57.23
2019-05-05T11:33:37.803Z,54.90
2019-05-05T11:34:37.800Z,55.13
2019-05-05T11:35:37.780Z,57.62
2019-05-05T11:36:37.761Z,59.91
2019-05-05T11:37:37.750Z,60.56
2019-05-05T11:38:37.760Z,61.21
2019-05-05T11:39:37.739Z,60.00
2019-05-05T11:40:37.710Z,62.81
2019-05-05T11:41:37.701Z,63.04
2019-05-05T11:42:37.690Z,65.94
2019-05-05T11:43:37.681Z,68.30
2019-05-05T11:44:37.680Z,69.31
2019-05-05T11:45:37.650Z,69.62
2019-05-05T11:46:37.640Z,69.82
2019-05-05T11:47:37.631Z,68.76
2019-05-05T11:48:37.621Z,65.15
2019-05-05T11:49:37.619Z,67.32
2019-05-05T11:50:37.597Z,66.15
2019-05-05T11:51:37.579Z,65.33
2019-05-05T11:52:37.569Z,65.12
2019-05-05T11:53:37.558Z,65.09
2019-05-05T11:54:37.558Z,65.68
2019-05-05T11:55:37.537Z,62.09
2019-05-05T11:56:37.528Z,60.83
2019-05-05T11:57:37.519Z,60.88
2019-05-05T11:58:37.507Z,60.44
2019-05-05T11:59:37.512Z,58.97
2019-05-05T12:00:37.477Z,55.49
2019-05-05T12:01:37.469Z,52.50
2019-05-05T12:02:37.451Z,51.40
2019-05-05T12:03:37.893Z,49.79
2019-05-05T12:04:37.437Z,51.54
2019-05-05T12:05:37.418Z,51.06
2019-05-05T12:06:37.406Z,53.13
2019-05-05T12:07:37.387Z,53.59
2019-05-05T12:08:37.377Z,52.49
2019-05-05T12:09:37.377Z,53.03
2019-05-05T12:10:37.347Z,56.41
2019-05-05T12:11:37.338Z,57.87
2019-05-05T12:12:37.327Z,55.51
2019-05-05T12:13:37.317Z,51.74
2019-05-05T12:14:37.317Z,53.61
2019-05-05T12:15:37.287Z,53.41
2019-05-05T12:16:37.276Z,54.05
2019-05-05T12:17:37.274Z,55.26
2019-05-05T12:18:37.246Z,57.51
2019-05-05T12:19:37.257Z,57.77
2019-05-05T12:20:37.227Z,56.51
2019-05-05T12:21:37.214Z,56.20
2019-05-05T12:22:37.206Z,59.36
2019-05-05T12:23:37.191Z,54.44
2019-05-05T12:24:37.186Z,54.69
2019-05-05T12:25:37.157Z,55.69
2019-05-05T12:26:37.146Z,55.23
2019-05-05T12:27:37.137Z,50.69
2019-05-05T12:28:37.128Z,46.93
2019-05-05T12:29:37.126Z,47.06
2019-05-05T12:30:37.096Z,46.76
2019-05-05T12:31:37.085Z,46.25
2019-05-05T12:32:37.077Z,45.36
2019-05-05T12:33:37.068Z,47.31
2019-05-05T12:34:37.065Z,45.63
2019-05-05T12:35:37.044Z,45.49
2019-05-05T12:36:37.025Z,46.55
2019-05-05T12:37:37.027Z,49.02
2019-05-05T12:38:37.017Z,49.79
2019-05-05T12:39:37.006Z,51.54
2019-05-05T12:40:36.985Z,52.80
2019-05-05T12:41:36.974Z,53.56
2019-05-05T12:42:36.965Z,53.59
2019-05-05T12:43:36.955Z,54.85
2019-05-05T12:44:36.955Z,55.49
2019-05-05T12:45:36.926Z,57.90
2019-05-05T12:46:36.918Z,57.51
2019-05-05T12:47:36.905Z,59.50
2019-05-05T12:48:36.895Z,60.03
2019-05-05T12:49:36.895Z,59.24
2019-05-05T12:50:36.875Z,58.62
2019-05-05T12:51:36.864Z,59.65
2019-05-05T12:52:36.845Z,61.94